sensor_id;sensor_type;location;lat;lon;timestamp;temperature;humidity
30300;DHT22;17110;52.602;12.998;2023-12-20T00:01:46;7.10;99.90
30300;DHT22;17110;52.602;12.998;2023-12-20T00:06:47;7.10;99.90
30300;DHT22;17110;52.602;12.998;2023-12-20T00:11:49;7.10;99.90
30300;DHT22;17110;52.602;12.998;2023-12-20T00:16:49;7.10;99.90
30300;DHT22;17110;52.602;12.998;2023-12-20T00:21:50;7.10;99.90
30300;DHT22;17110;52.602;12.998;2023-12-20T00:26:52;7.10;99.90
30300;DHT22;17110;52.602;12.998;2023-12-20T00:31:53;7.10;99.90
30300;DHT22;17110;52.602;12.998;2023-12-20T00:36:53;7.10;99.90
30300;DHT22;17110;52.602;12.998;2023-12-20T00:41:55;7.10;99.90
30300;DHT22;17110;52.602;12.998;2023-12-20T00:46:57;7.10;99.90
30300;DHT22;17110;52.602;12.998;2023-12-20T00:51:57;7.10;99.90
30300;DHT22;17110;52.602;12.998;2023-12-20T00:56:59;7.10;99.90
30300;DHT22;17110;52.602;12.998;2023-12-20T01:02:00;7.10;99.90
30300;DHT22;17110;52.602;12.998;2023-12-20T01:07:01;7.20;99.90
30300;DHT22;17110;52.602;12.998;2023-12-20T01:12:03;7.20;99.90
30300;DHT22;17110;52.602;12.998;2023-12-20T01:17:04;7.20;99.90
30300;DHT22;17110;52.602;12.998;2023-12-20T01:22:04;7.20;99.90
30300;DHT22;17110;52.602;12.998;2023-12-20T01:27:07;7.20;99.90
30300;DHT22;17110;52.602;12.998;2023-12-20T01:32:07;7.10;99.90
30300;DHT22;17110;52.602;12.998;2023-12-20T01:37:08;7.10;99.90
30300;DHT22;17110;52.602;12.998;2023-12-20T01:42:10;7.00;99.90
30300;DHT22;17110;52.602;12.998;2023-12-20T01:47:10;6.90;99.90
30300;DHT22;17110;52.602;12.998;2023-12-20T01:52:11;6.90;99.90
30300;DHT22;17110;52.602;12.998;2023-12-20T01:57:14;6.90;99.90
30300;DHT22;17110;52.602;12.998;2023-12-20T02:02:15;6.90;99.90
30300;DHT22;17110;52.602;12.998;2023-12-20T02:07:16;6.90;99.90
30300;DHT22;17110;52.602;12.998;2023-12-20T02:12:20;6.90;99.90
30300;DHT22;17110;52.602;12.998;2023-12-20T02:17:20;6.90;99.90
30300;DHT22;17110;52.602;12.998;2023-12-20T02:22:23;6.80;99.90
30300;DHT22;17110;52.602;12.998;2023-12-20T02:27:24;6.80;99.90
30300;DHT22;17110;52.602;12.998;2023-12-20T02:32:25;6.80;99.90
30300;DHT22;17110;52.602;12.998;2023-12-20T02:37:27;6.70;99.90
30300;DHT22;17110;52.602;12.998;2023-12-20T02:42:28;6.70;99.90
30300;DHT22;17110;52.602;12.998;2023-12-20T02:47:28;6.70;99.90
30300;DHT22;17110;52.602;12.998;2023-12-20T02:52:30;6.70;99.90
30300;DHT22;17110;52.602;12.998;2023-12-20T02:57:31;6.70;99.90
30300;DHT22;17110;52.602;12.998;2023-12-20T03:02:32;6.70;99.90
30300;DHT22;17110;52.602;12.998;2023-12-20T03:07:33;6.70;99.90
30300;DHT22;17110;52.602;12.998;2023-12-20T03:12:34;6.70;99.90
30300;DHT22;17110;52.602;12.998;2023-12-20T03:17:35;6.70;99.90
30300;DHT22;17110;52.602;12.998;2023-12-20T03:22:37;6.70;99.90
30300;DHT22;17110;52.602;12.998;2023-12-20T03:27:37;6.70;99.90
30300;DHT22;17110;52.602;12.998;2023-12-20T03:32:38;6.70;99.90
30300;DHT22;17110;52.602;12.998;2023-12-20T03:37:40;6.60;99.90
30300;DHT22;17110;52.602;12.998;2023-12-20T03:42:41;6.50;99.90
30300;DHT22;17110;52.602;12.998;2023-12-20T03:47:41;6.40;99.90
30300;DHT22;17110;52.602;12.998;2023-12-20T03:52:43;6.30;99.90
30300;DHT22;17110;52.602;12.998;2023-12-20T03:57:44;6.30;99.90
30300;DHT22;17110;52.602;12.998;2023-12-20T04:02:45;6.20;99.90
30300;DHT22;17110;52.602;12.998;2023-12-20T04:07:47;6.10;99.90
30300;DHT22;17110;52.602;12.998;2023-12-20T04:12:47;6.00;99.90
30300;DHT22;17110;52.602;12.998;2023-12-20T04:17:48;5.90;99.90
30300;DHT22;17110;52.602;12.998;2023-12-20T04:22:50;5.80;99.90
30300;DHT22;17110;52.602;12.998;2023-12-20T04:27:51;5.60;99.90
30300;DHT22;17110;52.602;12.998;2023-12-20T04:32:51;5.50;99.90
30300;DHT22;17110;52.602;12.998;2023-12-20T04:37:53;5.40;99.90
30300;DHT22;17110;52.602;12.998;2023-12-20T04:42:54;5.40;99.90
30300;DHT22;17110;52.602;12.998;2023-12-20T04:47:55;5.30;99.90
30300;DHT22;17110;52.602;12.998;2023-12-20T04:52:57;5.30;99.90
30300;DHT22;17110;52.602;12.998;2023-12-20T04:57:57;5.20;99.90
30300;DHT22;17110;52.602;12.998;2023-12-20T05:02:58;5.10;99.90
30300;DHT22;17110;52.602;12.998;2023-12-20T05:08:00;5.10;99.90
30300;DHT22;17110;52.602;12.998;2023-12-20T05:13:01;5.10;99.90
30300;DHT22;17110;52.602;12.998;2023-12-20T05:18:01;5.00;99.90
30300;DHT22;17110;52.602;12.998;2023-12-20T05:23:03;4.90;99.90
30300;DHT22;17110;52.602;12.998;2023-12-20T05:28:04;4.80;99.90
30300;DHT22;17110;52.602;12.998;2023-12-20T05:33:05;4.60;99.90
30300;DHT22;17110;52.602;12.998;2023-12-20T05:38:07;4.60;99.90
30300;DHT22;17110;52.602;12.998;2023-12-20T05:43:08;4.50;99.90
30300;DHT22;17110;52.602;12.998;2023-12-20T05:48:08;4.50;99.90
30300;DHT22;17110;52.602;12.998;2023-12-20T05:53:10;4.60;99.90
30300;DHT22;17110;52.602;12.998;2023-12-20T05:58:11;4.60;99.90
30300;DHT22;17110;52.602;12.998;2023-12-20T06:03:12;4.70;99.90
30300;DHT22;17110;52.602;12.998;2023-12-20T06:08:14;4.60;99.90
30300;DHT22;17110;52.602;12.998;2023-12-20T06:13:14;4.60;99.90
30300;DHT22;17110;52.602;12.998;2023-12-20T06:18:15;4.60;99.90
30300;DHT22;17110;52.602;12.998;2023-12-20T06:23:17;4.80;99.90
30300;DHT22;17110;52.602;12.998;2023-12-20T06:28:18;4.80;99.90
30300;DHT22;17110;52.602;12.998;2023-12-20T06:33:18;4.90;99.90
30300;DHT22;17110;52.602;12.998;2023-12-20T06:38:20;5.00;99.90
30300;DHT22;17110;52.602;12.998;2023-12-20T06:43:21;5.10;99.90
30300;DHT22;17110;52.602;12.998;2023-12-20T06:48:21;5.10;99.90
30300;DHT22;17110;52.602;12.998;2023-12-20T06:53:23;5.10;99.90
30300;DHT22;17110;52.602;12.998;2023-12-20T06:58:24;5.20;99.90
30300;DHT22;17110;52.602;12.998;2023-12-20T07:03:25;5.20;99.90
30300;DHT22;17110;52.602;12.998;2023-12-20T07:08:27;5.20;99.90
30300;DHT22;17110;52.602;12.998;2023-12-20T07:13:27;5.20;99.90
30300;DHT22;17110;52.602;12.998;2023-12-20T07:18:28;5.20;99.90
30300;DHT22;17110;52.602;12.998;2023-12-20T07:23:30;5.20;99.90
30300;DHT22;17110;52.602;12.998;2023-12-20T07:28:30;5.20;99.90
30300;DHT22;17110;52.602;12.998;2023-12-20T07:33:31;5.20;99.90
30300;DHT22;17110;52.602;12.998;2023-12-20T07:38:33;5.30;99.90
30300;DHT22;17110;52.602;12.998;2023-12-20T07:43:34;5.30;99.90
30300;DHT22;17110;52.602;12.998;2023-12-20T07:48:35;5.40;99.90
30300;DHT22;17110;52.602;12.998;2023-12-20T07:53:37;5.40;99.90
30300;DHT22;17110;52.602;12.998;2023-12-20T07:58:38;5.50;99.90
30300;DHT22;17110;52.602;12.998;2023-12-20T08:03:38;5.50;99.90
30300;DHT22;17110;52.602;12.998;2023-12-20T08:08:40;5.50;99.90
30300;DHT22;17110;52.602;12.998;2023-12-20T08:13:41;5.50;99.90
30300;DHT22;17110;52.602;12.998;2023-12-20T08:18:42;5.60;99.90
30300;DHT22;17110;52.602;12.998;2023-12-20T08:23:44;5.50;99.90
30300;DHT22;17110;52.602;12.998;2023-12-20T08:28:44;5.60;99.90
30300;DHT22;17110;52.602;12.998;2023-12-20T08:33:46;5.70;99.90
30300;DHT22;17110;52.602;12.998;2023-12-20T08:38:48;5.80;99.90
30300;DHT22;17110;52.602;12.998;2023-12-20T08:43:49;5.90;99.90
30300;DHT22;17110;52.602;12.998;2023-12-20T08:48:49;6.00;99.90
30300;DHT22;17110;52.602;12.998;2023-12-20T08:53:51;5.90;99.90
30300;DHT22;17110;52.602;12.998;2023-12-20T08:58:52;6.00;99.90
30300;DHT22;17110;52.602;12.998;2023-12-20T09:03:53;6.10;99.90
30300;DHT22;17110;52.602;12.998;2023-12-20T09:08:55;6.20;99.90
30300;DHT22;17110;52.602;12.998;2023-12-20T09:13:55;6.10;99.90
30300;DHT22;17110;52.602;12.998;2023-12-20T09:18:56;6.10;99.90
30300;DHT22;17110;52.602;12.998;2023-12-20T09:23:58;6.10;99.90
30300;DHT22;17110;52.602;12.998;2023-12-20T09:28:59;6.10;99.90
30300;DHT22;17110;52.602;12.998;2023-12-20T09:33:59;6.10;99.90
30300;DHT22;17110;52.602;12.998;2023-12-20T09:39:01;6.20;99.90
30300;DHT22;17110;52.602;12.998;2023-12-20T09:44:02;6.20;99.90
30300;DHT22;17110;52.602;12.998;2023-12-20T09:49:03;6.20;99.90
30300;DHT22;17110;52.602;12.998;2023-12-20T09:54:06;6.20;99.90
30300;DHT22;17110;52.602;12.998;2023-12-20T09:59:07;6.20;99.90
30300;DHT22;17110;52.602;12.998;2023-12-20T10:04:09;6.30;99.90
30300;DHT22;17110;52.602;12.998;2023-12-20T10:09:12;6.30;99.90
30300;DHT22;17110;52.602;12.998;2023-12-20T10:14:12;6.40;99.90
30300;DHT22;17110;52.602;12.998;2023-12-20T10:19:16;6.40;99.90
30300;DHT22;17110;52.602;12.998;2023-12-20T10:24:18;6.40;99.90
30300;DHT22;17110;52.602;12.998;2023-12-20T10:29:19;6.40;99.90
30300;DHT22;17110;52.602;12.998;2023-12-20T10:34:19;6.50;99.90
30300;DHT22;17110;52.602;12.998;2023-12-20T10:39:22;6.50;99.90
30300;DHT22;17110;52.602;12.998;2023-12-20T10:44:23;6.50;99.90
30300;DHT22;17110;52.602;12.998;2023-12-20T10:49:24;6.50;99.90
30300;DHT22;17110;52.602;12.998;2023-12-20T10:54:27;6.50;99.90
30300;DHT22;17110;52.602;12.998;2023-12-20T10:59:29;6.60;99.90
30300;DHT22;17110;52.602;12.998;2023-12-20T11:04:38;6.70;99.90
30300;DHT22;17110;52.602;12.998;2023-12-20T11:09:46;6.70;99.90
30300;DHT22;17110;52.602;12.998;2023-12-20T11:14:50;6.70;99.90
30300;DHT22;17110;52.602;12.998;2023-12-20T11:20:08;6.60;99.90
30300;DHT22;17110;52.602;12.998;2023-12-20T11:25:11;6.60;99.90
30300;DHT22;17110;52.602;12.998;2023-12-20T11:30:14;6.60;99.90
30300;DHT22;17110;52.602;12.998;2023-12-20T11:35:19;6.70;99.90
30300;DHT22;17110;52.602;12.998;2023-12-20T11:40:23;6.80;99.90
30300;DHT22;17110;52.602;12.998;2023-12-20T11:45:25;6.80;99.90
30300;DHT22;17110;52.602;12.998;2023-12-20T11:50:26;7.00;99.90
30300;DHT22;17110;52.602;12.998;2023-12-20T11:55:28;7.00;99.90
30300;DHT22;17110;52.602;12.998;2023-12-20T12:00:29;7.10;99.90
30300;DHT22;17110;52.602;12.998;2023-12-20T12:05:30;6.90;99.90
30300;DHT22;17110;52.602;12.998;2023-12-20T12:10:33;6.90;99.90
30300;DHT22;17110;52.602;12.998;2023-12-20T12:15:34;6.80;99.90
30300;DHT22;17110;52.602;12.998;2023-12-20T12:20:35;6.80;99.90
30300;DHT22;17110;52.602;12.998;2023-12-20T12:25:37;6.70;99.90
30300;DHT22;17110;52.602;12.998;2023-12-20T12:30:38;6.60;99.90
30300;DHT22;17110;52.602;12.998;2023-12-20T12:35:38;6.60;99.90
30300;DHT22;17110;52.602;12.998;2023-12-20T12:40:43;6.60;99.90
30300;DHT22;17110;52.602;12.998;2023-12-20T12:45:44;6.60;99.90
30300;DHT22;17110;52.602;12.998;2023-12-20T12:50:45;6.60;99.90
30300;DHT22;17110;52.602;12.998;2023-12-20T12:55:47;6.60;99.90
30300;DHT22;17110;52.602;12.998;2023-12-20T13:00:48;6.60;99.90
30300;DHT22;17110;52.602;12.998;2023-12-20T13:05:49;6.50;99.90
30300;DHT22;17110;52.602;12.998;2023-12-20T13:10:51;6.30;99.90
30300;DHT22;17110;52.602;12.998;2023-12-20T13:15:51;6.30;99.90
30300;DHT22;17110;52.602;12.998;2023-12-20T13:20:52;6.30;99.90
30300;DHT22;17110;52.602;12.998;2023-12-20T13:25:54;6.20;99.90
30300;DHT22;17110;52.602;12.998;2023-12-20T13:30:55;6.20;99.90
30300;DHT22;17110;52.602;12.998;2023-12-20T13:35:55;6.30;99.90
30300;DHT22;17110;52.602;12.998;2023-12-20T13:40:57;6.30;99.90
30300;DHT22;17110;52.602;12.998;2023-12-20T13:45:58;6.10;99.90
30300;DHT22;17110;52.602;12.998;2023-12-20T13:50:59;5.90;99.90
30300;DHT22;17110;52.602;12.998;2023-12-20T13:56:01;5.70;99.90
30300;DHT22;17110;52.602;12.998;2023-12-20T14:01:01;5.60;99.90
30300;DHT22;17110;52.602;12.998;2023-12-20T14:06:02;5.50;99.90
30300;DHT22;17110;52.602;12.998;2023-12-20T14:11:04;5.50;99.90
30300;DHT22;17110;52.602;12.998;2023-12-20T14:16:05;5.60;99.90
30300;DHT22;17110;52.602;12.998;2023-12-20T14:21:06;5.70;99.90
30300;DHT22;17110;52.602;12.998;2023-12-20T14:26:08;5.70;99.90
30300;DHT22;17110;52.602;12.998;2023-12-20T14:31:08;5.70;99.90
30300;DHT22;17110;52.602;12.998;2023-12-20T14:36:09;5.70;99.90
30300;DHT22;17110;52.602;12.998;2023-12-20T14:41:11;5.60;99.90
30300;DHT22;17110;52.602;12.998;2023-12-20T14:46:12;5.50;99.90
30300;DHT22;17110;52.602;12.998;2023-12-20T14:51:12;5.40;99.90
30300;DHT22;17110;52.602;12.998;2023-12-20T14:56:14;5.40;99.90
30300;DHT22;17110;52.602;12.998;2023-12-20T15:01:15;5.40;99.90
30300;DHT22;17110;52.602;12.998;2023-12-20T15:06:16;5.40;99.90
30300;DHT22;17110;52.602;12.998;2023-12-20T15:11:18;5.40;99.90
30300;DHT22;17110;52.602;12.998;2023-12-20T15:16:18;5.20;99.90
30300;DHT22;17110;52.602;12.998;2023-12-20T15:21:19;5.20;99.90
30300;DHT22;17110;52.602;12.998;2023-12-20T15:26:21;5.10;99.90
30300;DHT22;17110;52.602;12.998;2023-12-20T15:31:22;5.10;99.90
30300;DHT22;17110;52.602;12.998;2023-12-20T15:36:22;5.00;99.90
30300;DHT22;17110;52.602;12.998;2023-12-20T15:41:24;5.00;99.90
30300;DHT22;17110;52.602;12.998;2023-12-20T15:46:25;5.10;99.90
30300;DHT22;17110;52.602;12.998;2023-12-20T15:51:26;5.00;99.90
30300;DHT22;17110;52.602;12.998;2023-12-20T15:56:28;5.00;99.90
30300;DHT22;17110;52.602;12.998;2023-12-20T16:01:29;4.90;99.90
30300;DHT22;17110;52.602;12.998;2023-12-20T16:06:30;4.80;99.90
30300;DHT22;17110;52.602;12.998;2023-12-20T16:11:32;4.80;99.90
30300;DHT22;17110;52.602;12.998;2023-12-20T16:16:32;4.70;99.90
30300;DHT22;17110;52.602;12.998;2023-12-20T16:21:33;4.70;99.90
30300;DHT22;17110;52.602;12.998;2023-12-20T16:26:35;4.60;99.90
30300;DHT22;17110;52.602;12.998;2023-12-20T16:31:35;4.60;99.90
30300;DHT22;17110;52.602;12.998;2023-12-20T16:36:49;4.50;99.90
30300;DHT22;17110;52.602;12.998;2023-12-20T16:41:51;4.50;99.90
30300;DHT22;17110;52.602;12.998;2023-12-20T16:46:52;4.50;99.90
30300;DHT22;17110;52.602;12.998;2023-12-20T16:51:53;4.50;99.90
30300;DHT22;17110;52.602;12.998;2023-12-20T16:56:54;4.50;99.90
30300;DHT22;17110;52.602;12.998;2023-12-20T17:01:55;4.60;99.90
30300;DHT22;17110;52.602;12.998;2023-12-20T17:06:56;4.60;99.90
30300;DHT22;17110;52.602;12.998;2023-12-20T17:11:58;4.60;99.90
30300;DHT22;17110;52.602;12.998;2023-12-20T17:16:58;4.60;99.90
30300;DHT22;17110;52.602;12.998;2023-12-20T17:21:59;4.60;99.90
30300;DHT22;17110;52.602;12.998;2023-12-20T17:27:01;4.60;99.90
30300;DHT22;17110;52.602;12.998;2023-12-20T17:32:02;4.70;99.90
30300;DHT22;17110;52.602;12.998;2023-12-20T17:37:03;4.70;99.90
30300;DHT22;17110;52.602;12.998;2023-12-20T17:42:05;4.80;99.90
30300;DHT22;17110;52.602;12.998;2023-12-20T17:47:06;4.80;99.90
30300;DHT22;17110;52.602;12.998;2023-12-20T17:52:06;4.90;99.90
30300;DHT22;17110;52.602;12.998;2023-12-20T17:57:08;5.00;99.90
30300;DHT22;17110;52.602;12.998;2023-12-20T18:02:09;5.10;99.90
30300;DHT22;17110;52.602;12.998;2023-12-20T18:07:10;5.10;99.90
30300;DHT22;17110;52.602;12.998;2023-12-20T18:12:12;5.10;99.90
30300;DHT22;17110;52.602;12.998;2023-12-20T18:17:13;5.10;99.90
30300;DHT22;17110;52.602;12.998;2023-12-20T18:22:13;5.20;99.90
30300;DHT22;17110;52.602;12.998;2023-12-20T18:27:16;5.10;99.90
30300;DHT22;17110;52.602;12.998;2023-12-20T18:32:16;5.10;99.90
30300;DHT22;17110;52.602;12.998;2023-12-20T18:37:17;5.10;99.90
30300;DHT22;17110;52.602;12.998;2023-12-20T18:42:19;5.10;99.90
30300;DHT22;17110;52.602;12.998;2023-12-20T18:47:20;5.20;99.90
30300;DHT22;17110;52.602;12.998;2023-12-20T18:52:21;5.30;99.90
30300;DHT22;17110;52.602;12.998;2023-12-20T18:57:23;5.30;99.90
30300;DHT22;17110;52.602;12.998;2023-12-20T19:02:24;5.30;99.90
30300;DHT22;17110;52.602;12.998;2023-12-20T19:07:25;5.40;99.90
30300;DHT22;17110;52.602;12.998;2023-12-20T19:12:27;5.30;99.90
30300;DHT22;17110;52.602;12.998;2023-12-20T19:17:28;5.40;99.90
30300;DHT22;17110;52.602;12.998;2023-12-20T19:22:28;5.40;99.90
30300;DHT22;17110;52.602;12.998;2023-12-20T19:27:30;5.40;99.90
30300;DHT22;17110;52.602;12.998;2023-12-20T19:32:31;5.40;99.90
30300;DHT22;17110;52.602;12.998;2023-12-20T19:37:32;5.40;99.90
30300;DHT22;17110;52.602;12.998;2023-12-20T19:42:34;5.30;99.90
30300;DHT22;17110;52.602;12.998;2023-12-20T19:47:34;5.30;99.90
30300;DHT22;17110;52.602;12.998;2023-12-20T19:52:35;5.30;99.90
30300;DHT22;17110;52.602;12.998;2023-12-20T19:57:37;5.30;99.90
30300;DHT22;17110;52.602;12.998;2023-12-20T20:02:38;5.30;99.90
30300;DHT22;17110;52.602;12.998;2023-12-20T20:07:38;5.30;99.90
30300;DHT22;17110;52.602;12.998;2023-12-20T20:12:40;5.30;99.90
30300;DHT22;17110;52.602;12.998;2023-12-20T20:17:41;5.30;99.90
30300;DHT22;17110;52.602;12.998;2023-12-20T20:22:42;5.30;99.90
30300;DHT22;17110;52.602;12.998;2023-12-20T20:27:43;5.30;99.90
30300;DHT22;17110;52.602;12.998;2023-12-20T20:32:44;5.30;99.90
30300;DHT22;17110;52.602;12.998;2023-12-20T20:37:45;5.30;99.90
30300;DHT22;17110;52.602;12.998;2023-12-20T20:42:47;5.20;99.90
30300;DHT22;17110;52.602;12.998;2023-12-20T20:47:47;5.20;99.90
30300;DHT22;17110;52.602;12.998;2023-12-20T20:52:48;5.20;99.90
30300;DHT22;17110;52.602;12.998;2023-12-20T20:57:50;5.10;99.90
30300;DHT22;17110;52.602;12.998;2023-12-20T21:02:51;5.10;99.90
30300;DHT22;17110;52.602;12.998;2023-12-20T21:07:51;5.00;99.90
30300;DHT22;17110;52.602;12.998;2023-12-20T21:12:53;5.00;99.90
30300;DHT22;17110;52.602;12.998;2023-12-20T21:17:54;5.00;99.90
30300;DHT22;17110;52.602;12.998;2023-12-20T21:22:54;4.90;99.90
30300;DHT22;17110;52.602;12.998;2023-12-20T21:27:56;5.00;99.90
30300;DHT22;17110;52.602;12.998;2023-12-20T21:32:57;4.90;99.90
30300;DHT22;17110;52.602;12.998;2023-12-20T21:37:58;4.90;99.90
30300;DHT22;17110;52.602;12.998;2023-12-20T21:43:00;4.90;99.90
30300;DHT22;17110;52.602;12.998;2023-12-20T21:48:02;4.90;99.90
30300;DHT22;17110;52.602;12.998;2023-12-20T21:53:03;4.80;99.90
30300;DHT22;17110;52.602;12.998;2023-12-20T21:58:05;4.80;99.90
30300;DHT22;17110;52.602;12.998;2023-12-20T22:03:06;4.80;99.90
30300;DHT22;17110;52.602;12.998;2023-12-20T22:08:07;4.70;99.90
30300;DHT22;17110;52.602;12.998;2023-12-20T22:13:11;4.80;99.90
30300;DHT22;17110;52.602;12.998;2023-12-20T22:18:12;4.70;99.90
30300;DHT22;17110;52.602;12.998;2023-12-20T22:23:14;4.60;99.90
30300;DHT22;17110;52.602;12.998;2023-12-20T22:28:16;4.60;99.90
30300;DHT22;17110;52.602;12.998;2023-12-20T22:33:17;4.60;99.90
30300;DHT22;17110;52.602;12.998;2023-12-20T22:38:17;4.60;99.90
30300;DHT22;17110;52.602;12.998;2023-12-20T22:43:19;4.60;99.90
30300;DHT22;17110;52.602;12.998;2023-12-20T22:48:20;4.60;99.90
30300;DHT22;17110;52.602;12.998;2023-12-20T22:53:21;4.50;99.90
30300;DHT22;17110;52.602;12.998;2023-12-20T22:58:23;4.50;99.90
30300;DHT22;17110;52.602;12.998;2023-12-20T23:03:23;4.60;99.90
30300;DHT22;17110;52.602;12.998;2023-12-20T23:08:24;4.60;99.90
30300;DHT22;17110;52.602;12.998;2023-12-20T23:13:26;4.60;99.90
30300;DHT22;17110;52.602;12.998;2023-12-20T23:18:27;4.60;99.90
30300;DHT22;17110;52.602;12.998;2023-12-20T23:23:27;4.70;99.90
30300;DHT22;17110;52.602;12.998;2023-12-20T23:28:29;4.60;99.90
30300;DHT22;17110;52.602;12.998;2023-12-20T23:33:30;4.70;99.90
30300;DHT22;17110;52.602;12.998;2023-12-20T23:38:30;4.70;99.90
30300;DHT22;17110;52.602;12.998;2023-12-20T23:43:32;4.70;99.90
30300;DHT22;17110;52.602;12.998;2023-12-20T23:48:33;4.70;99.90
30300;DHT22;17110;52.602;12.998;2023-12-20T23:53:34;4.80;99.90
30300;DHT22;17110;52.602;12.998;2023-12-20T23:58:36;4.80;99.90
